sensor_id;sensor_type;location;lat;lon;timestamp;P1;durP1;ratioP1;P2;durP2;ratioP2
1977;SDS011;989;53.016;8.346;2023-02-15T00:01:44;25.92;;;12.38;;
1977;SDS011;989;53.016;8.346;2023-02-15T00:04:14;28.70;;;13.15;;
1977;SDS011;989;53.016;8.346;2023-02-15T00:06:42;28.17;;;12.93;;
1977;SDS011;989;53.016;8.346;2023-02-15T00:09:08;24.00;;;12.30;;
1977;SDS011;989;53.016;8.346;2023-02-15T00:11:35;31.63;;;15.40;;
1977;SDS011;989;53.016;8.346;2023-02-15T00:14:22;24.00;;;13.32;;
1977;SDS011;989;53.016;8.346;2023-02-15T00:16:49;29.50;;;14.00;;
1977;SDS011;989;53.016;8.346;2023-02-15T00:19:17;33.58;;;16.00;;
1977;SDS011;989;53.016;8.346;2023-02-15T00:21:44;27.73;;;13.18;;
1977;SDS011;989;53.016;8.346;2023-02-15T00:24:12;25.83;;;12.70;;
1977;SDS011;989;53.016;8.346;2023-02-15T00:26:40;27.73;;;13.20;;
1977;SDS011;989;53.016;8.346;2023-02-15T00:29:07;40.42;;;16.33;;
1977;SDS011;989;53.016;8.346;2023-02-15T00:31:34;35.95;;;15.32;;
1977;SDS011;989;53.016;8.346;2023-02-15T00:34:04;26.35;;;14.50;;
1977;SDS011;989;53.016;8.346;2023-02-15T00:36:40;26.58;;;12.45;;
1977;SDS011;989;53.016;8.346;2023-02-15T00:39:06;30.38;;;14.57;;
1977;SDS011;989;53.016;8.346;2023-02-15T00:41:32;49.90;;;16.63;;
1977;SDS011;989;53.016;8.346;2023-02-15T00:43:58;39.37;;;15.30;;
1977;SDS011;989;53.016;8.346;2023-02-15T00:46:24;39.27;;;17.30;;
1977;SDS011;989;53.016;8.346;2023-02-15T00:48:49;38.00;;;17.10;;
1977;SDS011;989;53.016;8.346;2023-02-15T00:51:15;32.90;;;16.70;;
1977;SDS011;989;53.016;8.346;2023-02-15T00:53:42;42.80;;;17.70;;
1977;SDS011;989;53.016;8.346;2023-02-15T00:56:09;37.13;;;18.08;;
1977;SDS011;989;53.016;8.346;2023-02-15T00:58:36;60.95;;;22.02;;
1977;SDS011;989;53.016;8.346;2023-02-15T01:01:03;56.88;;;20.55;;
1977;SDS011;989;53.016;8.346;2023-02-15T01:03:31;39.72;;;18.60;;
1977;SDS011;989;53.016;8.346;2023-02-15T01:05:58;48.53;;;19.60;;
1977;SDS011;989;53.016;8.346;2023-02-15T01:08:23;41.43;;;18.70;;
1977;SDS011;989;53.016;8.346;2023-02-15T01:10:49;48.08;;;21.17;;
1977;SDS011;989;53.016;8.346;2023-02-15T01:13:15;41.53;;;19.47;;
1977;SDS011;989;53.016;8.346;2023-02-15T01:15:42;42.63;;;18.55;;
1977;SDS011;989;53.016;8.346;2023-02-15T01:18:09;47.17;;;18.30;;
1977;SDS011;989;53.016;8.346;2023-02-15T01:20:37;46.53;;;20.25;;
1977;SDS011;989;53.016;8.346;2023-02-15T01:23:06;34.25;;;18.60;;
1977;SDS011;989;53.016;8.346;2023-02-15T01:25:33;41.53;;;16.52;;
1977;SDS011;989;53.016;8.346;2023-02-15T01:28:01;41.83;;;15.13;;
1977;SDS011;989;53.016;8.346;2023-02-15T01:30:28;37.47;;;16.27;;
1977;SDS011;989;53.016;8.346;2023-02-15T01:32:53;40.67;;;19.10;;
1977;SDS011;989;53.016;8.346;2023-02-15T01:35:20;40.95;;;19.30;;
1977;SDS011;989;53.016;8.346;2023-02-15T01:37:46;45.53;;;19.63;;
1977;SDS011;989;53.016;8.346;2023-02-15T01:40:12;49.50;;;21.60;;
1977;SDS011;989;53.016;8.346;2023-02-15T01:42:42;54.28;;;18.58;;
1977;SDS011;989;53.016;8.346;2023-02-15T01:45:30;46.30;;;20.77;;
1977;SDS011;989;53.016;8.346;2023-02-15T01:50:32;47.38;;;19.33;;
1977;SDS011;989;53.016;8.346;2023-02-15T01:53:33;42.80;;;18.88;;
1977;SDS011;989;53.016;8.346;2023-02-15T01:56:09;44.85;;;18.95;;
1977;SDS011;989;53.016;8.346;2023-02-15T01:58:41;37.72;;;18.05;;
1977;SDS011;989;53.016;8.346;2023-02-15T02:01:08;38.38;;;16.15;;
1977;SDS011;989;53.016;8.346;2023-02-15T02:03:53;43.13;;;17.37;;
1977;SDS011;989;53.016;8.346;2023-02-15T02:06:20;39.63;;;17.80;;
1977;SDS011;989;53.016;8.346;2023-02-15T02:08:46;41.70;;;18.58;;
1977;SDS011;989;53.016;8.346;2023-02-15T02:11:14;37.40;;;15.80;;
1977;SDS011;989;53.016;8.346;2023-02-15T02:13:40;311.48;;;24.60;;
1977;SDS011;989;53.016;8.346;2023-02-15T02:16:16;90.47;;;16.35;;
1977;SDS011;989;53.016;8.346;2023-02-15T02:22:07;83.25;;;13.75;;
1977;SDS011;989;53.016;8.346;2023-02-15T02:25:00;23.73;;;12.27;;
1977;SDS011;989;53.016;8.346;2023-02-15T02:31:03;36.00;;;15.43;;
1977;SDS011;989;53.016;8.346;2023-02-15T02:39:30;46.85;;;19.63;;
1977;SDS011;989;53.016;8.346;2023-02-15T02:42:06;53.55;;;21.38;;
1977;SDS011;989;53.016;8.346;2023-02-15T02:44:49;45.65;;;19.63;;
1977;SDS011;989;53.016;8.346;2023-02-15T02:47:27;51.60;;;21.40;;
1977;SDS011;989;53.016;8.346;2023-02-15T02:50:00;50.47;;;19.33;;
1977;SDS011;989;53.016;8.346;2023-02-15T02:52:43;48.72;;;20.40;;
1977;SDS011;989;53.016;8.346;2023-02-15T02:55:13;43.25;;;19.13;;
1977;SDS011;989;53.016;8.346;2023-02-15T03:00:46;43.85;;;18.70;;
1977;SDS011;989;53.016;8.346;2023-02-15T03:03:21;36.20;;;19.70;;
1977;SDS011;989;53.016;8.346;2023-02-15T03:06:10;55.22;;;19.95;;
1977;SDS011;989;53.016;8.346;2023-02-15T03:08:45;55.92;;;20.40;;
1977;SDS011;989;53.016;8.346;2023-02-15T03:11:16;61.75;;;23.48;;
1977;SDS011;989;53.016;8.346;2023-02-15T03:13:42;46.80;;;19.95;;
1977;SDS011;989;53.016;8.346;2023-02-15T03:16:10;56.05;;;22.13;;
1977;SDS011;989;53.016;8.346;2023-02-15T03:19:05;68.72;;;23.98;;
1977;SDS011;989;53.016;8.346;2023-02-15T03:21:51;55.60;;;22.00;;
1977;SDS011;989;53.016;8.346;2023-02-15T03:24:33;53.72;;;20.05;;
1977;SDS011;989;53.016;8.346;2023-02-15T03:27:07;58.03;;;23.23;;
1977;SDS011;989;53.016;8.346;2023-02-15T03:29:42;57.85;;;23.60;;
1977;SDS011;989;53.016;8.346;2023-02-15T03:32:10;62.30;;;23.00;;
1977;SDS011;989;53.016;8.346;2023-02-15T03:34:39;53.33;;;21.65;;
1977;SDS011;989;53.016;8.346;2023-02-15T03:37:48;44.70;;;20.00;;
1977;SDS011;989;53.016;8.346;2023-02-15T03:43:17;44.78;;;21.00;;
1977;SDS011;989;53.016;8.346;2023-02-15T03:46:01;62.08;;;22.30;;
1977;SDS011;989;53.016;8.346;2023-02-15T03:48:37;52.65;;;21.10;;
1977;SDS011;989;53.016;8.346;2023-02-15T03:51:09;43.58;;;22.25;;
1977;SDS011;989;53.016;8.346;2023-02-15T03:53:58;73.32;;;22.40;;
1977;SDS011;989;53.016;8.346;2023-02-15T03:56:27;53.97;;;21.75;;
1977;SDS011;989;53.016;8.346;2023-02-15T03:58:53;70.33;;;24.07;;
1977;SDS011;989;53.016;8.346;2023-02-15T04:01:38;63.03;;;23.92;;
1977;SDS011;989;53.016;8.346;2023-02-15T04:04:40;42.05;;;22.00;;
1977;SDS011;989;53.016;8.346;2023-02-15T04:07:11;57.38;;;22.23;;
1977;SDS011;989;53.016;8.346;2023-02-15T04:09:37;55.90;;;20.57;;
1977;SDS011;989;53.016;8.346;2023-02-15T04:12:21;60.15;;;24.15;;
1977;SDS011;989;53.016;8.346;2023-02-15T04:14:47;61.45;;;21.85;;
1977;SDS011;989;53.016;8.346;2023-02-15T04:17:32;50.90;;;23.42;;
1977;SDS011;989;53.016;8.346;2023-02-15T04:19:57;62.13;;;23.17;;
1977;SDS011;989;53.016;8.346;2023-02-15T04:22:41;60.55;;;23.73;;
1977;SDS011;989;53.016;8.346;2023-02-15T04:25:25;45.00;;;24.65;;
1977;SDS011;989;53.016;8.346;2023-02-15T04:27:52;53.70;;;23.33;;
1977;SDS011;989;53.016;8.346;2023-02-15T04:30:20;60.05;;;22.08;;
1977;SDS011;989;53.016;8.346;2023-02-15T04:32:48;50.78;;;21.25;;
1977;SDS011;989;53.016;8.346;2023-02-15T04:35:14;66.33;;;20.67;;
1977;SDS011;989;53.016;8.346;2023-02-15T04:37:41;53.83;;;23.47;;
1977;SDS011;989;53.016;8.346;2023-02-15T04:40:08;60.58;;;23.48;;
1977;SDS011;989;53.016;8.346;2023-02-15T04:42:38;59.00;;;24.80;;
1977;SDS011;989;53.016;8.346;2023-02-15T04:45:04;60.73;;;23.37;;
1977;SDS011;989;53.016;8.346;2023-02-15T04:47:30;82.07;;;21.60;;
1977;SDS011;989;53.016;8.346;2023-02-15T04:49:56;133.37;;;26.10;;
1977;SDS011;989;53.016;8.346;2023-02-15T04:52:22;82.17;;;20.90;;
1977;SDS011;989;53.016;8.346;2023-02-15T04:54:47;143.87;;;23.97;;
1977;SDS011;989;53.016;8.346;2023-02-15T04:57:13;110.07;;;24.50;;
1977;SDS011;989;53.016;8.346;2023-02-15T04:59:39;105.93;;;20.93;;
1977;SDS011;989;53.016;8.346;2023-02-15T05:02:04;76.97;;;22.50;;
1977;SDS011;989;53.016;8.346;2023-02-15T05:04:30;81.63;;;22.90;;
1977;SDS011;989;53.016;8.346;2023-02-15T05:06:55;64.33;;;22.93;;
1977;SDS011;989;53.016;8.346;2023-02-15T05:09:21;47.50;;;19.83;;
1977;SDS011;989;53.016;8.346;2023-02-15T05:11:47;64.37;;;25.50;;
1977;SDS011;989;53.016;8.346;2023-02-15T05:14:13;51.40;;;22.57;;
1977;SDS011;989;53.016;8.346;2023-02-15T05:16:38;54.97;;;23.50;;
1977;SDS011;989;53.016;8.346;2023-02-15T05:19:04;55.70;;;22.33;;
1977;SDS011;989;53.016;8.346;2023-02-15T05:21:31;59.28;;;20.20;;
1977;SDS011;989;53.016;8.346;2023-02-15T05:23:57;45.53;;;20.67;;
1977;SDS011;989;53.016;8.346;2023-02-15T05:26:23;67.43;;;22.93;;
1977;SDS011;989;53.016;8.346;2023-02-15T05:29:09;47.15;;;20.58;;
1977;SDS011;989;53.016;8.346;2023-02-15T05:31:35;51.03;;;21.60;;
1977;SDS011;989;53.016;8.346;2023-02-15T05:34:02;58.60;;;24.67;;
1977;SDS011;989;53.016;8.346;2023-02-15T05:36:28;56.28;;;24.27;;
1977;SDS011;989;53.016;8.346;2023-02-15T05:38:54;59.10;;;21.80;;
1977;SDS011;989;53.016;8.346;2023-02-15T05:41:20;60.65;;;23.80;;
1977;SDS011;989;53.016;8.346;2023-02-15T05:43:46;49.20;;;18.80;;
1977;SDS011;989;53.016;8.346;2023-02-15T05:46:12;58.00;;;22.88;;
1977;SDS011;989;53.016;8.346;2023-02-15T05:48:38;53.77;;;21.47;;
1977;SDS011;989;53.016;8.346;2023-02-15T05:53:36;67.78;;;20.40;;
1977;SDS011;989;53.016;8.346;2023-02-15T05:56:03;44.20;;;18.15;;
1977;SDS011;989;53.016;8.346;2023-02-15T05:58:32;62.92;;;23.60;;
1977;SDS011;989;53.016;8.346;2023-02-15T06:01:07;47.55;;;20.88;;
1977;SDS011;989;53.016;8.346;2023-02-15T06:03:43;50.83;;;20.40;;
1977;SDS011;989;53.016;8.346;2023-02-15T06:06:10;44.08;;;20.15;;
1977;SDS011;989;53.016;8.346;2023-02-15T06:08:36;38.17;;;18.07;;
1977;SDS011;989;53.016;8.346;2023-02-15T06:11:02;73.50;;;23.05;;
1977;SDS011;989;53.016;8.346;2023-02-15T06:13:29;36.45;;;18.88;;
1977;SDS011;989;53.016;8.346;2023-02-15T06:15:56;49.50;;;21.10;;
1977;SDS011;989;53.016;8.346;2023-02-15T06:18:21;53.67;;;20.53;;
1977;SDS011;989;53.016;8.346;2023-02-15T06:20:47;65.43;;;24.80;;
1977;SDS011;989;53.016;8.346;2023-02-15T06:23:14;38.75;;;18.52;;
1977;SDS011;989;53.016;8.346;2023-02-15T06:25:40;43.65;;;19.63;;
1977;SDS011;989;53.016;8.346;2023-02-15T06:28:06;55.77;;;21.77;;
1977;SDS011;989;53.016;8.346;2023-02-15T06:30:31;47.00;;;20.97;;
1977;SDS011;989;53.016;8.346;2023-02-15T06:32:57;58.27;;;19.20;;
1977;SDS011;989;53.016;8.346;2023-02-15T06:35:23;42.80;;;22.23;;
1977;SDS011;989;53.016;8.346;2023-02-15T06:37:49;38.43;;;20.77;;
1977;SDS011;989;53.016;8.346;2023-02-15T06:40:15;50.37;;;18.47;;
1977;SDS011;989;53.016;8.346;2023-02-15T06:42:41;49.47;;;21.35;;
1977;SDS011;989;53.016;8.346;2023-02-15T06:45:07;57.40;;;23.40;;
1977;SDS011;989;53.016;8.346;2023-02-15T06:47:34;42.70;;;20.15;;
1977;SDS011;989;53.016;8.346;2023-02-15T06:50:00;59.13;;;25.43;;
1977;SDS011;989;53.016;8.346;2023-02-15T06:52:26;69.50;;;23.23;;
1977;SDS011;989;53.016;8.346;2023-02-15T06:54:51;68.23;;;21.87;;
1977;SDS011;989;53.016;8.346;2023-02-15T06:57:17;52.60;;;23.30;;
1977;SDS011;989;53.016;8.346;2023-02-15T06:59:42;93.87;;;24.60;;
1977;SDS011;989;53.016;8.346;2023-02-15T07:02:09;58.30;;;24.63;;
1977;SDS011;989;53.016;8.346;2023-02-15T07:04:37;57.70;;;21.35;;
1977;SDS011;989;53.016;8.346;2023-02-15T07:07:02;68.23;;;25.70;;
1977;SDS011;989;53.016;8.346;2023-02-15T07:09:28;63.15;;;28.02;;
1977;SDS011;989;53.016;8.346;2023-02-15T07:11:54;72.07;;;25.08;;
1977;SDS011;989;53.016;8.346;2023-02-15T07:14:38;67.10;;;24.02;;
1977;SDS011;989;53.016;8.346;2023-02-15T07:17:05;58.85;;;25.58;;
1977;SDS011;989;53.016;8.346;2023-02-15T07:19:31;54.63;;;23.63;;
1977;SDS011;989;53.016;8.346;2023-02-15T07:21:57;60.80;;;23.40;;
1977;SDS011;989;53.016;8.346;2023-02-15T07:24:23;47.13;;;24.00;;
1977;SDS011;989;53.016;8.346;2023-02-15T07:26:48;49.07;;;22.40;;
1977;SDS011;989;53.016;8.346;2023-02-15T07:29:14;75.47;;;25.90;;
1977;SDS011;989;53.016;8.346;2023-02-15T07:31:40;62.60;;;24.92;;
1977;SDS011;989;53.016;8.346;2023-02-15T07:34:10;64.70;;;27.33;;
1977;SDS011;989;53.016;8.346;2023-02-15T07:36:36;65.72;;;29.40;;
1977;SDS011;989;53.016;8.346;2023-02-15T07:39:02;69.97;;;26.87;;
1977;SDS011;989;53.016;8.346;2023-02-15T07:41:28;64.10;;;28.20;;
1977;SDS011;989;53.016;8.346;2023-02-15T07:43:53;76.53;;;30.60;;
1977;SDS011;989;53.016;8.346;2023-02-15T07:46:19;73.33;;;28.27;;
1977;SDS011;989;53.016;8.346;2023-02-15T07:48:46;66.35;;;27.80;;
1977;SDS011;989;53.016;8.346;2023-02-15T07:51:12;72.05;;;28.58;;
1977;SDS011;989;53.016;8.346;2023-02-15T07:53:39;62.28;;;25.65;;
1977;SDS011;989;53.016;8.346;2023-02-15T07:56:07;74.60;;;24.00;;
1977;SDS011;989;53.016;8.346;2023-02-15T07:58:36;70.93;;;25.15;;
1977;SDS011;989;53.016;8.346;2023-02-15T08:01:26;53.28;;;24.63;;
1977;SDS011;989;53.016;8.346;2023-02-15T08:03:57;59.47;;;26.45;;
1977;SDS011;989;53.016;8.346;2023-02-15T08:06:24;66.00;;;23.42;;
1977;SDS011;989;53.016;8.346;2023-02-15T08:08:53;57.95;;;24.73;;
1977;SDS011;989;53.016;8.346;2023-02-15T08:11:20;65.23;;;25.93;;
1977;SDS011;989;53.016;8.346;2023-02-15T08:16:48;67.68;;;26.15;;
1977;SDS011;989;53.016;8.346;2023-02-15T08:21:58;88.78;;;29.02;;
1977;SDS011;989;53.016;8.346;2023-02-15T08:24:28;70.25;;;29.15;;
1977;SDS011;989;53.016;8.346;2023-02-15T08:26:57;84.10;;;31.83;;
1977;SDS011;989;53.016;8.346;2023-02-15T08:29:24;77.28;;;29.30;;
1977;SDS011;989;53.016;8.346;2023-02-15T08:31:52;72.40;;;31.73;;
1977;SDS011;989;53.016;8.346;2023-02-15T08:34:23;85.90;;;29.30;;
1977;SDS011;989;53.016;8.346;2023-02-15T08:36:49;89.37;;;31.40;;
1977;SDS011;989;53.016;8.346;2023-02-15T08:39:16;65.82;;;29.23;;
1977;SDS011;989;53.016;8.346;2023-02-15T08:41:43;97.15;;;32.83;;
1977;SDS011;989;53.016;8.346;2023-02-15T08:44:10;77.63;;;32.15;;
1977;SDS011;989;53.016;8.346;2023-02-15T08:46:38;72.57;;;32.08;;
1977;SDS011;989;53.016;8.346;2023-02-15T08:49:06;99.43;;;33.10;;
1977;SDS011;989;53.016;8.346;2023-02-15T08:51:34;90.22;;;31.40;;
1977;SDS011;989;53.016;8.346;2023-02-15T08:54:03;138.00;;;33.58;;
1977;SDS011;989;53.016;8.346;2023-02-15T08:56:32;100.40;;;38.72;;
1977;SDS011;989;53.016;8.346;2023-02-15T08:59:03;92.47;;;36.42;;
1977;SDS011;989;53.016;8.346;2023-02-15T09:01:30;86.30;;;34.20;;
1977;SDS011;989;53.016;8.346;2023-02-15T09:03:59;68.63;;;32.42;;
1977;SDS011;989;53.016;8.346;2023-02-15T09:06:36;97.00;;;34.38;;
1977;SDS011;989;53.016;8.346;2023-02-15T09:09:03;112.05;;;38.75;;
1977;SDS011;989;53.016;8.346;2023-02-15T09:11:32;95.45;;;35.30;;
1977;SDS011;989;53.016;8.346;2023-02-15T09:14:04;93.68;;;35.08;;
1977;SDS011;989;53.016;8.346;2023-02-15T09:16:39;107.25;;;39.92;;
1977;SDS011;989;53.016;8.346;2023-02-15T09:19:06;95.35;;;37.55;;
1977;SDS011;989;53.016;8.346;2023-02-15T09:21:36;105.23;;;39.80;;
1977;SDS011;989;53.016;8.346;2023-02-15T09:24:07;109.50;;;40.58;;
1977;SDS011;989;53.016;8.346;2023-02-15T09:26:36;106.80;;;41.15;;
1977;SDS011;989;53.016;8.346;2023-02-15T09:29:08;119.15;;;45.78;;
1977;SDS011;989;53.016;8.346;2023-02-15T09:31:43;121.75;;;48.60;;
1977;SDS011;989;53.016;8.346;2023-02-15T09:34:12;129.00;;;46.65;;
1977;SDS011;989;53.016;8.346;2023-02-15T09:36:41;139.82;;;50.17;;
1977;SDS011;989;53.016;8.346;2023-02-15T09:39:08;126.17;;;48.93;;
1977;SDS011;989;53.016;8.346;2023-02-15T09:44:57;132.45;;;47.10;;
1977;SDS011;989;53.016;8.346;2023-02-15T09:51:08;156.32;;;50.70;;
1977;SDS011;989;53.016;8.346;2023-02-15T09:56:45;166.30;;;53.60;;
1977;SDS011;989;53.016;8.346;2023-02-15T09:59:33;155.48;;;57.22;;
1977;SDS011;989;53.016;8.346;2023-02-15T10:05:34;161.35;;;56.85;;
1977;SDS011;989;53.016;8.346;2023-02-15T10:11:14;179.05;;;65.63;;
1977;SDS011;989;53.016;8.346;2023-02-15T10:14:30;203.50;;;67.15;;
1977;SDS011;989;53.016;8.346;2023-02-15T10:17:28;181.10;;;59.35;;
1977;SDS011;989;53.016;8.346;2023-02-15T10:20:24;182.77;;;65.35;;
1977;SDS011;989;53.016;8.346;2023-02-15T10:23:32;229.90;;;70.90;;
1977;SDS011;989;53.016;8.346;2023-02-15T10:28:59;252.93;;;73.13;;
1977;SDS011;989;53.016;8.346;2023-02-15T10:32:23;235.98;;;73.68;;
1977;SDS011;989;53.016;8.346;2023-02-15T10:37:43;250.85;;;81.85;;
1977;SDS011;989;53.016;8.346;2023-02-15T10:40:46;246.73;;;79.80;;
1977;SDS011;989;53.016;8.346;2023-02-15T10:43:36;242.93;;;79.60;;
1977;SDS011;989;53.016;8.346;2023-02-15T10:46:24;271.42;;;88.13;;
1977;SDS011;989;53.016;8.346;2023-02-15T10:49:11;260.35;;;83.07;;
1977;SDS011;989;53.016;8.346;2023-02-15T10:57:51;256.80;;;83.32;;
1977;SDS011;989;53.016;8.346;2023-02-15T11:06:16;262.00;;;85.07;;
1977;SDS011;989;53.016;8.346;2023-02-15T11:08:46;259.40;;;88.47;;
1977;SDS011;989;53.016;8.346;2023-02-15T11:11:23;256.27;;;91.83;;
1977;SDS011;989;53.016;8.346;2023-02-15T11:13:58;276.90;;;94.77;;
1977;SDS011;989;53.016;8.346;2023-02-15T11:16:30;275.53;;;98.80;;
1977;SDS011;989;53.016;8.346;2023-02-15T11:21:55;206.50;;;78.97;;
1977;SDS011;989;53.016;8.346;2023-02-15T11:24:29;209.00;;;80.17;;
1977;SDS011;989;53.016;8.346;2023-02-15T11:29:53;197.07;;;79.80;;
1977;SDS011;989;53.016;8.346;2023-02-15T11:32:35;172.53;;;68.57;;
1977;SDS011;989;53.016;8.346;2023-02-15T11:35:11;143.87;;;63.93;;
1977;SDS011;989;53.016;8.346;2023-02-15T11:38:24;141.23;;;61.70;;
1977;SDS011;989;53.016;8.346;2023-02-15T11:40:57;124.10;;;58.60;;
1977;SDS011;989;53.016;8.346;2023-02-15T11:43:36;117.43;;;56.30;;
1977;SDS011;989;53.016;8.346;2023-02-15T11:46:08;107.23;;;50.30;;
1977;SDS011;989;53.016;8.346;2023-02-15T11:48:37;95.63;;;47.73;;
1977;SDS011;989;53.016;8.346;2023-02-15T11:51:04;106.60;;;44.40;;
1977;SDS011;989;53.016;8.346;2023-02-15T11:53:32;83.40;;;42.17;;
1977;SDS011;989;53.016;8.346;2023-02-15T11:56:01;60.80;;;34.33;;
1977;SDS011;989;53.016;8.346;2023-02-15T11:58:33;71.40;;;37.10;;
1977;SDS011;989;53.016;8.346;2023-02-15T12:01:11;60.77;;;34.53;;
1977;SDS011;989;53.016;8.346;2023-02-15T12:03:50;64.63;;;36.90;;
1977;SDS011;989;53.016;8.346;2023-02-15T12:08:54;70.43;;;35.53;;
1977;SDS011;989;53.016;8.346;2023-02-15T12:11:47;64.10;;;34.27;;
1977;SDS011;989;53.016;8.346;2023-02-15T12:14:13;59.43;;;32.60;;
1977;SDS011;989;53.016;8.346;2023-02-15T12:16:43;61.67;;;31.20;;
1977;SDS011;989;53.016;8.346;2023-02-15T12:19:24;54.23;;;32.10;;
1977;SDS011;989;53.016;8.346;2023-02-15T12:22:04;59.70;;;31.67;;
1977;SDS011;989;53.016;8.346;2023-02-15T12:24:37;55.00;;;30.93;;
1977;SDS011;989;53.016;8.346;2023-02-15T12:27:17;57.77;;;29.23;;
1977;SDS011;989;53.016;8.346;2023-02-15T12:29:48;49.77;;;27.37;;
1977;SDS011;989;53.016;8.346;2023-02-15T12:32:19;52.37;;;29.73;;
1977;SDS011;989;53.016;8.346;2023-02-15T12:35:39;56.90;;;28.87;;
1977;SDS011;989;53.016;8.346;2023-02-15T12:38:01;53.07;;;27.77;;
1977;SDS011;989;53.016;8.346;2023-02-15T12:40:41;54.97;;;28.73;;
1977;SDS011;989;53.016;8.346;2023-02-15T12:44:02;51.63;;;26.10;;
1977;SDS011;989;53.016;8.346;2023-02-15T12:46:32;53.33;;;26.03;;
1977;SDS011;989;53.016;8.346;2023-02-15T12:49:04;51.17;;;24.83;;
1977;SDS011;989;53.016;8.346;2023-02-15T12:56:49;55.03;;;25.60;;
1977;SDS011;989;53.016;8.346;2023-02-15T12:59:16;41.67;;;24.07;;
1977;SDS011;989;53.016;8.346;2023-02-15T13:01:45;58.93;;;24.87;;
1977;SDS011;989;53.016;8.346;2023-02-15T13:04:19;60.57;;;24.80;;
1977;SDS011;989;53.016;8.346;2023-02-15T13:07:00;46.20;;;22.63;;
1977;SDS011;989;53.016;8.346;2023-02-15T13:11:56;61.23;;;23.90;;
1977;SDS011;989;53.016;8.346;2023-02-15T13:14:45;50.43;;;22.83;;
1977;SDS011;989;53.016;8.346;2023-02-15T13:17:16;44.93;;;22.03;;
1977;SDS011;989;53.016;8.346;2023-02-15T13:19:52;41.80;;;21.67;;
1977;SDS011;989;53.016;8.346;2023-02-15T13:22:20;48.73;;;22.87;;
1977;SDS011;989;53.016;8.346;2023-02-15T13:24:53;45.90;;;21.83;;
1977;SDS011;989;53.016;8.346;2023-02-15T13:27:24;55.13;;;24.27;;
1977;SDS011;989;53.016;8.346;2023-02-15T13:30:02;44.83;;;23.80;;
1977;SDS011;989;53.016;8.346;2023-02-15T13:32:43;42.17;;;21.53;;
1977;SDS011;989;53.016;8.346;2023-02-15T13:35:14;48.20;;;24.27;;
1977;SDS011;989;53.016;8.346;2023-02-15T13:37:57;41.50;;;21.73;;
1977;SDS011;989;53.016;8.346;2023-02-15T13:40:55;45.37;;;21.73;;
1977;SDS011;989;53.016;8.346;2023-02-15T13:43:32;44.20;;;23.30;;
1977;SDS011;989;53.016;8.346;2023-02-15T13:46:42;47.43;;;23.20;;
1977;SDS011;989;53.016;8.346;2023-02-15T13:49:39;46.03;;;22.43;;
1977;SDS011;989;53.016;8.346;2023-02-15T13:52:19;46.00;;;21.77;;
1977;SDS011;989;53.016;8.346;2023-02-15T14:04:00;48.93;;;23.20;;
1977;SDS011;989;53.016;8.346;2023-02-15T14:09:36;40.57;;;22.40;;
1977;SDS011;989;53.016;8.346;2023-02-15T14:18:04;48.60;;;23.77;;
1977;SDS011;989;53.016;8.346;2023-02-15T14:20:51;52.27;;;23.70;;
1977;SDS011;989;53.016;8.346;2023-02-15T14:23:56;46.47;;;21.00;;
1977;SDS011;989;53.016;8.346;2023-02-15T14:29:37;52.30;;;22.77;;
1977;SDS011;989;53.016;8.346;2023-02-15T14:35:32;40.43;;;22.13;;
1977;SDS011;989;53.016;8.346;2023-02-15T14:38:04;42.37;;;21.10;;
1977;SDS011;989;53.016;8.346;2023-02-15T14:41:04;49.80;;;23.40;;
1977;SDS011;989;53.016;8.346;2023-02-15T14:49:40;46.27;;;23.10;;
1977;SDS011;989;53.016;8.346;2023-02-15T14:52:07;45.43;;;22.53;;
1977;SDS011;989;53.016;8.346;2023-02-15T14:59:43;45.33;;;21.97;;
1977;SDS011;989;53.016;8.346;2023-02-15T15:02:42;46.97;;;22.57;;
1977;SDS011;989;53.016;8.346;2023-02-15T15:05:17;48.13;;;21.07;;
1977;SDS011;989;53.016;8.346;2023-02-15T15:07:59;54.93;;;24.00;;
1977;SDS011;989;53.016;8.346;2023-02-15T15:10:32;51.50;;;22.87;;
1977;SDS011;989;53.016;8.346;2023-02-15T15:13:34;46.90;;;21.27;;
1977;SDS011;989;53.016;8.346;2023-02-15T15:16:23;46.67;;;23.10;;
1977;SDS011;989;53.016;8.346;2023-02-15T15:18:50;48.20;;;22.50;;
1977;SDS011;989;53.016;8.346;2023-02-15T15:35:33;34.73;;;20.60;;
1977;SDS011;989;53.016;8.346;2023-02-15T15:46:54;58.30;;;22.13;;
1977;SDS011;989;53.016;8.346;2023-02-15T15:49:54;38.03;;;19.50;;
1977;SDS011;989;53.016;8.346;2023-02-15T15:52:22;46.83;;;21.27;;
1977;SDS011;989;53.016;8.346;2023-02-15T15:54:50;37.23;;;20.10;;
1977;SDS011;989;53.016;8.346;2023-02-15T15:57:29;53.53;;;21.77;;
1977;SDS011;989;53.016;8.346;2023-02-15T16:00:00;47.43;;;21.50;;
1977;SDS011;989;53.016;8.346;2023-02-15T16:02:27;34.93;;;20.50;;
1977;SDS011;989;53.016;8.346;2023-02-15T16:04:53;40.47;;;20.17;;
1977;SDS011;989;53.016;8.346;2023-02-15T16:12:26;48.00;;;22.83;;
1977;SDS011;989;53.016;8.346;2023-02-15T16:14:54;47.10;;;22.30;;
1977;SDS011;989;53.016;8.346;2023-02-15T16:17:28;34.63;;;19.70;;
1977;SDS011;989;53.016;8.346;2023-02-15T16:20:02;42.30;;;21.50;;
1977;SDS011;989;53.016;8.346;2023-02-15T16:28:37;35.15;;;19.02;;
1977;SDS011;989;53.016;8.346;2023-02-15T16:31:07;42.37;;;20.60;;
1977;SDS011;989;53.016;8.346;2023-02-15T16:33:39;42.40;;;22.35;;
1977;SDS011;989;53.016;8.346;2023-02-15T16:36:26;35.63;;;19.73;;
1977;SDS011;989;53.016;8.346;2023-02-15T16:41:22;38.00;;;19.75;;
1977;SDS011;989;53.016;8.346;2023-02-15T16:43:50;39.08;;;20.83;;
1977;SDS011;989;53.016;8.346;2023-02-15T16:46:31;40.70;;;20.45;;
1977;SDS011;989;53.016;8.346;2023-02-15T16:49:14;39.08;;;19.92;;
1977;SDS011;989;53.016;8.346;2023-02-15T16:51:44;41.83;;;19.83;;
1977;SDS011;989;53.016;8.346;2023-02-15T16:54:15;36.45;;;19.65;;
1977;SDS011;989;53.016;8.346;2023-02-15T16:56:44;37.53;;;19.55;;
1977;SDS011;989;53.016;8.346;2023-02-15T16:59:17;44.03;;;20.17;;
1977;SDS011;989;53.016;8.346;2023-02-15T17:01:58;39.05;;;20.50;;
1977;SDS011;989;53.016;8.346;2023-02-15T17:04:27;38.13;;;18.97;;
1977;SDS011;989;53.016;8.346;2023-02-15T17:07:03;48.70;;;19.58;;
1977;SDS011;989;53.016;8.346;2023-02-15T17:09:29;41.10;;;21.85;;
1977;SDS011;989;53.016;8.346;2023-02-15T17:11:55;46.40;;;23.30;;
1977;SDS011;989;53.016;8.346;2023-02-15T17:14:35;53.15;;;22.35;;
1977;SDS011;989;53.016;8.346;2023-02-15T17:17:05;44.63;;;21.20;;
1977;SDS011;989;53.016;8.346;2023-02-15T17:19:43;45.53;;;22.65;;
1977;SDS011;989;53.016;8.346;2023-02-15T17:22:17;44.90;;;21.90;;
1977;SDS011;989;53.016;8.346;2023-02-15T17:24:50;40.78;;;21.05;;
1977;SDS011;989;53.016;8.346;2023-02-15T17:27:29;50.42;;;22.58;;
1977;SDS011;989;53.016;8.346;2023-02-15T17:30:02;46.47;;;23.05;;
1977;SDS011;989;53.016;8.346;2023-02-15T17:32:38;45.03;;;23.05;;
1977;SDS011;989;53.016;8.346;2023-02-15T17:35:23;53.10;;;24.00;;
1977;SDS011;989;53.016;8.346;2023-02-15T17:38:14;64.63;;;25.25;;
1977;SDS011;989;53.016;8.346;2023-02-15T17:40:44;53.78;;;25.00;;
1977;SDS011;989;53.016;8.346;2023-02-15T17:43:09;61.07;;;25.80;;
1977;SDS011;989;53.016;8.346;2023-02-15T17:45:36;56.00;;;26.77;;
1977;SDS011;989;53.016;8.346;2023-02-15T17:48:09;55.40;;;25.50;;
1977;SDS011;989;53.016;8.346;2023-02-15T17:50:47;52.40;;;26.98;;
1977;SDS011;989;53.016;8.346;2023-02-15T17:53:15;62.55;;;23.92;;
1977;SDS011;989;53.016;8.346;2023-02-15T17:55:43;55.83;;;24.60;;
1977;SDS011;989;53.016;8.346;2023-02-15T17:58:10;56.92;;;25.35;;
1977;SDS011;989;53.016;8.346;2023-02-15T18:00:57;52.10;;;24.70;;
1977;SDS011;989;53.016;8.346;2023-02-15T18:03:47;47.15;;;24.45;;
1977;SDS011;989;53.016;8.346;2023-02-15T18:06:34;56.90;;;25.27;;
1977;SDS011;989;53.016;8.346;2023-02-15T18:09:22;54.15;;;23.48;;